createdAt,value
2022-09-14T00:02:09.915Z,94329.28
2022-09-14T00:05:18.425Z,94334.16
2022-09-14T00:08:26.577Z,94340.50
2022-09-14T00:11:38.122Z,94336.00
2022-09-14T00:14:47.784Z,94338.63
2022-09-14T00:17:55.970Z,94326.56
2022-09-14T00:21:07.589Z,94324.63
2022-09-14T00:24:15.854Z,94325.03
2022-09-14T00:27:24.249Z,94310.13
2022-09-14T00:30:37.965Z,94300.50
2022-09-14T00:33:49.035Z,94294.00
2022-09-14T00:37:01.817Z,94295.06
2022-09-14T00:40:12.413Z,94294.81
2022-09-14T00:43:21.075Z,94293.94
2022-09-14T00:46:36.138Z,94276.44
2022-09-14T00:49:45.345Z,94269.72
2022-09-14T00:52:56.919Z,94267.31
2022-09-14T00:56:05.244Z,94267.75
2022-09-14T00:59:18.965Z,94268.34
2022-09-14T01:02:31.640Z,94268.81
2022-09-14T01:06:05.358Z,94279.44
2022-09-14T01:09:34.547Z,94276.66
2022-09-14T01:13:00.268Z,94273.41
2022-09-14T01:16:21.961Z,94260.72
2022-09-14T01:20:05.201Z,94256.16
2022-09-14T01:23:23.581Z,94233.97
2022-09-14T01:26:59.928Z,94222.44
2022-09-14T01:30:13.783Z,94226.91
2022-09-14T01:33:31.434Z,94222.91
2022-09-14T01:36:45.549Z,94224.22
2022-09-14T01:40:02.302Z,94216.34
2022-09-14T01:43:17.705Z,94212.34
2022-09-14T01:46:34.977Z,94223.97
2022-09-14T01:49:52.127Z,94229.78
2022-09-14T01:53:11.352Z,94214.69
2022-09-14T01:56:25.466Z,94207.22
2022-09-14T01:59:40.269Z,94202.56
2022-09-14T02:02:56.184Z,94212.50
2022-09-14T02:06:16.978Z,94210.47
2022-09-14T02:09:27.665Z,94203.94
2022-09-14T02:12:36.270Z,94201.50
2022-09-14T02:15:44.776Z,94205.59
2022-09-14T02:18:54.923Z,94200.31
2022-09-14T02:22:03.279Z,94202.34
2022-09-14T02:25:13.888Z,94193.59
2022-09-14T02:28:22.088Z,94193.75
2022-09-14T02:31:46.531Z,94195.31
2022-09-14T02:35:11.278Z,94183.97
2022-09-14T02:38:29.844Z,94188.53
2022-09-14T02:42:08.108Z,94194.13
2022-09-14T02:45:27.020Z,94189.59
2022-09-14T02:48:48.892Z,94190.94
2022-09-14T02:52:08.751Z,94191.47
2022-09-14T02:55:22.818Z,94184.53
2022-09-14T02:58:37.165Z,94184.28
2022-09-14T03:01:45.518Z,94174.88
2022-09-14T03:04:53.792Z,94164.69
2022-09-14T03:08:07.446Z,94155.84
2022-09-14T03:11:16.107Z,94148.81
2022-09-14T03:14:24.419Z,94143.22
2022-09-14T03:17:32.768Z,94139.47
2022-09-14T03:20:41.280Z,94139.56
2022-09-14T03:23:55.162Z,94142.84
2022-09-14T03:27:03.504Z,94143.41
2022-09-14T03:30:12.986Z,94148.78
2022-09-14T03:33:21.125Z,94143.34
2022-09-14T03:36:32.441Z,94140.41
2022-09-14T03:39:42.128Z,94146.34
2022-09-14T03:42:52.675Z,94142.91
2022-09-14T03:46:07.414Z,94139.13
2022-09-14T03:49:15.919Z,94143.97
2022-09-14T03:52:24.356Z,94138.06
2022-09-14T03:55:34.365Z,94141.88
2022-09-14T03:58:46.958Z,94140.75
2022-09-14T04:01:56.950Z,94148.28
2022-09-14T04:05:06.193Z,94140.75
2022-09-14T04:08:17.889Z,94145.63
2022-09-14T04:11:28.916Z,94143.19
2022-09-14T04:14:37.286Z,94143.22
2022-09-14T04:17:45.573Z,94143.00
2022-09-14T04:24:16.682Z,94149.53
2022-09-14T04:27:26.333Z,94149.53
2022-09-14T04:30:34.431Z,94149.03
2022-09-14T04:33:44.779Z,94152.31
2022-09-14T04:36:52.974Z,94160.31
2022-09-14T04:40:01.136Z,94157.69
2022-09-14T04:43:10.685Z,94156.69
2022-09-14T04:46:21.462Z,94159.88
2022-09-14T04:49:29.601Z,94155.31
2022-09-14T04:52:38.389Z,94157.47
2022-09-14T04:55:46.467Z,94162.56
2022-09-14T04:58:59.953Z,94159.09
2022-09-14T05:02:08.113Z,94167.47
2022-09-14T05:05:16.512Z,94173.34
2022-09-14T05:08:24.844Z,94169.56
2022-09-14T05:11:37.489Z,94167.16
2022-09-14T05:14:47.545Z,94160.47
2022-09-14T05:17:55.649Z,94163.44
2022-09-14T05:21:08.242Z,94164.84
2022-09-14T05:24:19.250Z,94154.19
2022-09-14T05:27:27.501Z,94148.31
2022-09-14T05:30:40.796Z,94140.28
2022-09-14T05:33:49.300Z,94131.16
2022-09-14T05:36:58.016Z,94135.72
2022-09-14T05:40:07.750Z,94133.03
2022-09-14T05:43:16.086Z,94130.06
2022-09-14T05:46:27.201Z,94122.53
2022-09-14T05:49:35.357Z,94121.44
2022-09-14T05:52:43.489Z,94111.75
2022-09-14T05:56:01.386Z,94118.50
2022-09-14T05:59:10.784Z,94122.81
2022-09-14T06:02:20.276Z,94116.88
2022-09-14T06:05:36.762Z,94122.81
2022-09-14T06:08:50.072Z,94114.44
2022-09-14T06:11:58.204Z,94112.81
2022-09-14T06:15:07.846Z,94116.31
2022-09-14T06:18:17.305Z,94120.09
2022-09-14T06:21:31.529Z,94123.31
2022-09-14T06:24:39.647Z,94137.31
2022-09-14T06:27:47.724Z,94132.19
2022-09-14T06:30:56.327Z,94142.97
2022-09-14T06:34:06.804Z,94152.88
2022-09-14T06:37:14.873Z,94166.69
2022-09-14T06:40:23.128Z,94159.09
2022-09-14T06:43:34.201Z,94182.03
2022-09-14T06:46:46.972Z,94160.75
2022-09-14T06:49:56.941Z,94177.50
2022-09-14T06:53:05.879Z,94174.28
2022-09-14T06:56:15.023Z,94178.03
2022-09-14T06:59:23.077Z,94178.06
2022-09-14T07:02:31.271Z,94169.41
2022-09-14T07:05:40.752Z,94165.31
2022-09-14T07:08:51.036Z,94163.47
2022-09-14T07:11:59.206Z,94147.28
2022-09-14T07:15:09.629Z,94140.53
2022-09-14T07:18:18.178Z,94139.72
2022-09-14T07:21:28.287Z,94135.13
2022-09-14T07:24:36.359Z,94131.34
2022-09-14T07:27:44.506Z,94128.88
2022-09-14T07:30:55.872Z,94142.88
2022-09-14T07:34:07.843Z,94154.19
2022-09-14T07:37:17.319Z,94155.41
2022-09-14T07:40:26.987Z,94160.97
2022-09-14T07:43:35.846Z,94156.34
2022-09-14T07:46:46.599Z,94151.59
2022-09-14T07:49:54.719Z,94141.25
2022-09-14T07:53:04.268Z,94144.59
2022-09-14T07:56:16.510Z,94139.41
2022-09-14T07:59:35.723Z,94142.72
2022-09-14T08:02:52.823Z,94146.13
2022-09-14T08:06:02.203Z,94150.13
2022-09-14T08:09:11.583Z,94155.63
2022-09-14T08:12:19.653Z,94164.25
2022-09-14T08:15:28.775Z,94171.72
2022-09-14T08:18:38.903Z,94180.00
2022-09-14T08:21:49.044Z,94177.84
2022-09-14T08:24:58.827Z,94170.91
2022-09-14T08:28:07.033Z,94170.72
2022-09-14T08:31:18.750Z,94166.63
2022-09-14T08:34:26.932Z,94162.00
2022-09-14T08:37:35.037Z,94166.75
2022-09-14T08:40:47.833Z,94174.06
2022-09-14T08:44:00.432Z,94169.16
2022-09-14T08:47:16.607Z,94175.72
2022-09-14T08:50:25.549Z,94178.59
2022-09-14T08:53:40.770Z,94170.44
2022-09-14T08:57:00.472Z,94175.06
2022-09-14T09:00:13.886Z,94185.28
2022-09-14T09:03:53.501Z,94185.84
2022-09-14T09:07:13.055Z,94188.88
2022-09-14T09:10:22.026Z,94201.53
2022-09-14T09:13:39.110Z,94192.69
2022-09-14T09:16:52.506Z,94195.06
2022-09-14T09:20:14.146Z,94196.38
2022-09-14T09:23:25.030Z,94206.41
2022-09-14T09:26:34.252Z,94217.31
2022-09-14T09:29:44.416Z,94208.09
2022-09-14T09:32:52.948Z,94220.81
2022-09-14T09:36:20.037Z,94216.75
2022-09-14T09:39:32.123Z,94215.47
2022-09-14T09:43:10.552Z,94203.53
2022-09-14T09:46:20.197Z,94205.06
2022-09-14T09:49:33.386Z,94205.09
2022-09-14T09:52:51.996Z,94204.09
2022-09-14T09:56:00.268Z,94207.03
2022-09-14T09:59:29.998Z,94205.19
2022-09-14T10:02:39.977Z,94205.72
2022-09-14T10:06:02.049Z,94190.75
2022-09-14T10:09:17.949Z,94183.53
2022-09-14T10:12:27.381Z,94181.44
2022-09-14T10:15:37.212Z,94168.69
2022-09-14T10:18:50.573Z,94160.69
2022-09-14T10:22:27.889Z,94149.69
2022-09-14T10:25:37.548Z,94151.47
2022-09-14T10:28:48.107Z,94146.34
2022-09-14T10:32:05.076Z,94133.75
2022-09-14T10:35:17.182Z,94131.34
2022-09-14T10:38:33.757Z,94143.22
2022-09-14T10:41:50.133Z,94123.75
2022-09-14T10:45:18.561Z,94116.56
2022-09-14T10:49:18.507Z,94112.44
2022-09-14T10:52:50.087Z,94103.91
2022-09-14T10:56:07.430Z,94097.16
2022-09-14T10:59:33.388Z,94105.34
2022-09-14T11:03:20.902Z,94086.88
2022-09-14T11:06:46.763Z,94092.00
2022-09-14T11:10:17.010Z,94095.28
2022-09-14T11:13:51.945Z,94096.03
2022-09-14T11:17:26.663Z,94085.59
2022-09-14T11:20:58.867Z,94077.97
2022-09-14T11:24:22.155Z,94076.59
2022-09-14T11:27:40.897Z,94062.56
2022-09-14T11:30:56.643Z,94066.91
2022-09-14T11:34:22.602Z,94059.06
2022-09-14T11:37:41.528Z,94054.53
2022-09-14T11:40:56.874Z,94061.06
2022-09-14T11:44:17.525Z,94061.13
2022-09-14T11:47:27.421Z,94054.88
2022-09-14T11:50:38.331Z,94054.41
2022-09-14T11:53:47.609Z,94050.72
2022-09-14T11:57:01.946Z,94052.63
2022-09-14T12:01:00.729Z,94043.28
2022-09-14T12:04:16.254Z,94051.66
2022-09-14T12:08:02.986Z,94030.16
2022-09-14T12:11:37.124Z,94035.00
2022-09-14T12:14:46.879Z,94039.94
2022-09-14T12:18:24.332Z,94024.19
2022-09-14T12:21:32.665Z,94022.78
2022-09-14T12:24:40.928Z,94022.19
2022-09-14T12:27:51.777Z,94018.94
2022-09-14T12:31:40.552Z,94020.09
2022-09-14T12:35:47.292Z,94031.94
2022-09-14T12:39:23.263Z,94035.13
2022-09-14T12:42:32.466Z,94030.59
2022-09-14T12:46:00.755Z,94030.19
2022-09-14T12:49:35.484Z,94041.25
2022-09-14T12:53:01.569Z,94032.91
2022-09-14T12:56:23.631Z,94032.31
2022-09-14T12:59:50.928Z,94036.13
2022-09-14T13:03:27.496Z,94049.91
2022-09-14T13:06:45.112Z,94048.28
2022-09-14T13:09:58.632Z,94049.06
2022-09-14T13:13:16.637Z,94044.06
2022-09-14T13:16:42.093Z,94042.44
2022-09-14T13:19:57.145Z,94040.13
2022-09-14T13:23:20.288Z,94033.75
2022-09-14T13:26:33.328Z,94035.69
2022-09-14T13:29:42.303Z,94036.03
2022-09-14T13:32:54.622Z,94036.97
2022-09-14T13:36:05.306Z,94047.00
2022-09-14T13:39:27.059Z,94034.06
2022-09-14T13:42:37.019Z,94041.41
2022-09-14T13:45:45.861Z,94032.94
2022-09-14T13:48:55.259Z,94028.84
2022-09-14T13:52:49.748Z,94024.78
2022-09-14T13:55:57.923Z,94033.34
2022-09-14T13:59:21.957Z,94035.66
2022-09-14T14:02:33.842Z,94023.63
2022-09-14T14:05:43.755Z,94023.22
2022-09-14T14:09:03.987Z,94022.47
2022-09-14T14:12:25.804Z,94015.69
2022-09-14T14:15:42.482Z,94020.38
2022-09-14T14:18:55.217Z,94030.38
2022-09-14T14:22:21.370Z,94030.50
2022-09-14T14:25:33.941Z,94033.78
2022-09-14T14:28:43.681Z,94033.03
2022-09-14T14:31:58.470Z,94020.34
2022-09-14T14:35:19.566Z,94035.56
2022-09-14T14:38:28.533Z,94037.53
2022-09-14T14:41:39.516Z,94039.78
2022-09-14T14:44:49.215Z,94042.63
2022-09-14T14:48:00.857Z,94033.16
2022-09-14T14:51:16.061Z,94030.75
2022-09-14T14:54:25.141Z,94018.59
2022-09-14T14:57:33.801Z,94018.09
2022-09-14T15:00:43.069Z,94012.25
2022-09-14T15:03:53.502Z,94013.66
2022-09-14T15:07:03.373Z,94015.69
2022-09-14T15:10:18.195Z,94025.72
2022-09-14T15:13:26.517Z,94026.63
2022-09-14T15:16:34.917Z,94027.44
2022-09-14T15:19:44.705Z,94032.34
2022-09-14T15:22:53.137Z,94024.50
2022-09-14T15:26:01.588Z,94013.53
2022-09-14T15:29:13.211Z,94017.25
2022-09-14T15:32:21.782Z,94016.94
2022-09-14T15:35:31.762Z,94023.00
2022-09-14T15:38:40.243Z,94043.09
2022-09-14T15:41:49.254Z,94046.28
2022-09-14T15:44:57.637Z,94052.94
2022-09-14T15:48:06.450Z,94072.03
2022-09-14T15:51:19.665Z,94068.13
2022-09-14T15:54:54.621Z,94089.72
2022-09-14T15:58:03.621Z,94095.53
2022-09-14T16:01:15.692Z,94095.53
2022-09-14T16:04:24.315Z,94101.31
2022-09-14T16:07:34.211Z,94111.75
2022-09-14T16:10:42.553Z,94112.97
2022-09-14T16:13:52.323Z,94101.69
2022-09-14T16:17:01.113Z,94079.72
2022-09-14T16:20:11.013Z,94084.00
2022-09-14T16:23:21.537Z,94099.13
2022-09-14T16:26:32.853Z,94103.56
2022-09-14T16:29:41.651Z,94104.88
2022-09-14T16:32:49.949Z,94101.38
2022-09-14T16:36:05.260Z,94104.28
2022-09-14T16:39:18.159Z,94099.13
2022-09-14T16:42:27.068Z,94081.09
2022-09-14T16:45:35.352Z,94057.88
2022-09-14T16:48:50.109Z,94074.34
2022-09-14T16:52:00.803Z,94081.34
2022-09-14T16:55:11.070Z,94094.84
2022-09-14T16:58:19.180Z,94109.44
2022-09-14T17:01:30.910Z,94107.53
2022-09-14T17:04:39.445Z,94089.41
2022-09-14T17:07:48.074Z,94105.66
2022-09-14T17:10:58.200Z,94098.38
2022-09-14T17:14:07.881Z,94106.19
2022-09-14T17:17:16.136Z,94104.06
2022-09-14T17:20:24.280Z,94102.16
2022-09-14T17:23:32.901Z,94091.69
2022-09-14T17:26:43.330Z,94096.81
2022-09-14T17:29:53.087Z,94085.28
2022-09-14T17:33:01.914Z,94081.28
2022-09-14T17:36:12.214Z,94084.81
2022-09-14T17:39:20.578Z,94080.75
2022-09-14T17:42:30.194Z,94081.03
2022-09-14T17:45:38.979Z,94088.03
2022-09-14T17:48:47.301Z,94082.66
2022-09-14T17:51:55.844Z,94082.06
2022-09-14T17:55:04.615Z,94076.69
2022-09-14T17:58:19.439Z,94083.41
2022-09-14T18:01:28.875Z,94075.34
2022-09-14T18:04:37.697Z,94083.69
2022-09-14T18:07:46.789Z,94095.53
2022-09-14T18:10:56.372Z,94090.97
2022-09-14T18:14:07.295Z,94094.44
2022-09-14T18:17:17.059Z,94096.59
2022-09-14T18:20:25.652Z,94094.97
2022-09-14T18:23:35.871Z,94096.28
2022-09-14T18:26:46.378Z,94089.03
2022-09-14T18:29:56.246Z,94090.94
2022-09-14T18:33:04.906Z,94088.50
2022-09-14T18:36:15.196Z,94090.91
2022-09-14T18:39:23.973Z,94082.03
2022-09-14T18:42:32.256Z,94084.19
2022-09-14T18:45:43.768Z,94078.25
2022-09-14T18:48:53.347Z,94075.56
2022-09-14T18:52:02.170Z,94063.69
2022-09-14T18:55:11.491Z,94057.78
2022-09-14T18:58:19.885Z,94061.84
2022-09-14T19:01:30.045Z,94056.72
2022-09-14T19:04:38.837Z,94046.78
2022-09-14T19:07:47.148Z,94054.06
2022-09-14T19:10:56.126Z,94044.88
2022-09-14T19:14:10.515Z,94038.44
2022-09-14T19:17:22.660Z,94033.59
2022-09-14T19:20:48.705Z,94030.91
2022-09-14T19:24:06.943Z,94031.97
2022-09-14T19:27:15.705Z,94027.41
2022-09-14T19:30:24.093Z,94023.91
2022-09-14T19:33:34.314Z,94029.00
2022-09-14T19:36:43.368Z,94020.38
2022-09-14T19:39:52.054Z,94039.78
2022-09-14T19:43:00.560Z,94042.22
2022-09-14T19:46:11.713Z,94048.13
2022-09-14T19:49:25.030Z,94060.53
2022-09-14T19:52:33.448Z,94065.91
2022-09-14T19:55:41.657Z,94081.78
2022-09-14T19:58:53.629Z,94090.13
2022-09-14T20:02:02.363Z,94083.41
2022-09-14T20:05:12.079Z,94101.72
2022-09-14T20:08:20.218Z,94105.44
2022-09-14T20:11:31.408Z,94098.72
2022-09-14T20:14:39.535Z,94100.09
2022-09-14T20:17:47.755Z,94100.34
2022-09-14T20:20:57.373Z,94098.47
2022-09-14T20:24:16.558Z,94098.72
2022-09-14T20:27:25.098Z,94098.47
2022-09-14T20:30:33.275Z,94093.59
2022-09-14T20:33:41.883Z,94090.56
2022-09-14T20:36:54.186Z,94100.19
2022-09-14T20:40:03.092Z,94104.50
2022-09-14T20:43:11.440Z,94097.25
2022-09-14T20:46:23.074Z,94110.94
2022-09-14T20:49:31.269Z,94107.16
2022-09-14T20:52:40.904Z,94101.81
2022-09-14T20:55:49.487Z,94113.41
2022-09-14T20:59:00.066Z,94108.53
2022-09-14T21:02:08.433Z,94116.34
2022-09-14T21:05:16.782Z,94104.00
2022-09-14T21:08:26.539Z,94105.56
2022-09-14T21:11:35.690Z,94099.63
2022-09-14T21:14:45.225Z,94096.44
2022-09-14T21:17:53.865Z,94091.25
2022-09-14T21:21:07.027Z,94094.50
2022-09-14T21:24:22.896Z,94098.03
2022-09-14T21:27:32.934Z,94090.53
2022-09-14T21:30:41.419Z,94097.00
2022-09-14T21:33:54.232Z,94097.56
2022-09-14T21:37:02.542Z,94099.19
2022-09-14T21:40:12.573Z,94097.56
2022-09-14T21:43:21.081Z,94094.94
2022-09-14T21:46:29.677Z,94101.06
2022-09-14T21:49:37.809Z,94109.47
2022-09-14T21:52:46.138Z,94122.66
2022-09-14T21:55:55.705Z,94163.31
2022-09-14T21:59:07.585Z,94156.03
2022-09-14T22:02:16.202Z,94149.25
2022-09-14T22:05:33.183Z,94157.81
2022-09-14T22:08:42.372Z,94153.44
2022-09-14T22:11:52.648Z,94150.63
2022-09-14T22:15:01.009Z,94151.25
2022-09-14T22:18:09.416Z,94146.28
2022-09-14T22:21:19.308Z,94144.31
2022-09-14T22:24:36.377Z,94157.94
2022-09-14T22:27:47.230Z,94163.28
2022-09-14T22:30:56.438Z,94160.09
2022-09-14T22:34:05.215Z,94147.69
2022-09-14T22:37:13.416Z,94153.66
2022-09-14T22:40:21.730Z,94139.78
2022-09-14T22:43:32.950Z,94142.28
2022-09-14T22:46:41.648Z,94136.16
2022-09-14T22:49:50.381Z,94137.22
2022-09-14T22:52:58.941Z,94142.47
2022-09-14T22:56:15.765Z,94144.97
2022-09-14T22:59:25.281Z,94145.22
2022-09-14T23:02:33.499Z,94155.69
2022-09-14T23:05:50.326Z,94156.84
2022-09-14T23:09:00.382Z,94162.22
2022-09-14T23:12:08.687Z,94164.28
2022-09-14T23:15:18.593Z,94157.63
2022-09-14T23:18:26.752Z,94149.31
2022-09-14T23:21:35.855Z,94151.97
2022-09-14T23:24:44.236Z,94148.16
2022-09-14T23:27:52.494Z,94139.03
2022-09-14T23:31:02.751Z,94142.69
2022-09-14T23:34:11.194Z,94139.56
2022-09-14T23:37:20.472Z,94154.16
2022-09-14T23:40:31.356Z,94151.13
2022-09-14T23:43:39.559Z,94154.84
2022-09-14T23:46:49.131Z,94153.53
2022-09-14T23:49:57.498Z,94163.03
2022-09-14T23:53:06.634Z,94155.75
2022-09-14T23:56:15.566Z,94152.53
2022-09-14T23:59:23.884Z,94149.06
